sensor_id;sensor_type;location;lat;lon;timestamp;pressure;altitude;pressure_sealevel;temperature;humidity
13387;BME280;6763;48.524;9.044;2023-05-17T00:01:15;98126.41;;;12.61;47.84
13387;BME280;6763;48.524;9.044;2023-05-17T00:03:41;98126.50;;;12.58;47.52
13387;BME280;6763;48.524;9.044;2023-05-17T00:06:06;98123.94;;;12.56;47.79
13387;BME280;6763;48.524;9.044;2023-05-17T00:08:31;98126.53;;;12.56;47.79
13387;BME280;6763;48.524;9.044;2023-05-17T00:10:57;98130.78;;;12.60;47.92
13387;BME280;6763;48.524;9.044;2023-05-17T00:13:22;98129.94;;;12.60;47.65
13387;BME280;6763;48.524;9.044;2023-05-17T00:15:47;98129.94;;;12.58;47.77
13387;BME280;6763;48.524;9.044;2023-05-17T00:18:13;98128.25;;;12.57;47.88
13387;BME280;6763;48.524;9.044;2023-05-17T00:20:38;98134.31;;;12.56;47.86
13387;BME280;6763;48.524;9.044;2023-05-17T00:23:03;98134.34;;;12.55;47.59
13387;BME280;6763;48.524;9.044;2023-05-17T00:25:29;98129.19;;;12.53;47.65
13387;BME280;6763;48.524;9.044;2023-05-17T00:27:54;98131.88;;;12.50;47.53
13387;BME280;6763;48.524;9.044;2023-05-17T00:30:19;98142.25;;;12.49;47.76
13387;BME280;6763;48.524;9.044;2023-05-17T00:32:45;98149.22;;;12.47;47.44
13387;BME280;6763;48.524;9.044;2023-05-17T00:35:11;98147.50;;;12.45;47.38
13387;BME280;6763;48.524;9.044;2023-05-17T00:37:37;98146.69;;;12.43;47.16
13387;BME280;6763;48.524;9.044;2023-05-17T00:40:06;98151.88;;;12.43;47.56
13387;BME280;6763;48.524;9.044;2023-05-17T00:42:31;98149.34;;;12.42;47.44
13387;BME280;6763;48.524;9.044;2023-05-17T00:44:57;98146.69;;;12.43;47.39
13387;BME280;6763;48.524;9.044;2023-05-17T00:47:22;98145.88;;;12.41;47.64
13387;BME280;6763;48.524;9.044;2023-05-17T00:49:47;98156.25;;;12.41;47.33
13387;BME280;6763;48.524;9.044;2023-05-17T00:52:13;98152.88;;;12.38;47.48
13387;BME280;6763;48.524;9.044;2023-05-17T00:54:39;98152.91;;;12.36;47.47
13387;BME280;6763;48.524;9.044;2023-05-17T00:57:04;98159.00;;;12.34;47.90
13387;BME280;6763;48.524;9.044;2023-05-17T00:59:30;98164.22;;;12.32;47.58
13387;BME280;6763;48.524;9.044;2023-05-17T01:01:56;98159.94;;;12.30;47.71
13387;BME280;6763;48.524;9.044;2023-05-17T01:04:23;98159.16;;;12.26;47.97
13387;BME280;6763;48.524;9.044;2023-05-17T01:06:48;98164.41;;;12.23;47.49
13387;BME280;6763;48.524;9.044;2023-05-17T01:09:14;98160.13;;;12.21;47.78
13387;BME280;6763;48.524;9.044;2023-05-17T01:11:59;98165.34;;;12.19;47.86
13387;BME280;6763;48.524;9.044;2023-05-17T01:17:38;98169.75;;;12.14;48.49
13387;BME280;6763;48.524;9.044;2023-05-17T01:20:24;98176.72;;;12.14;48.42
13387;BME280;6763;48.524;9.044;2023-05-17T01:25:41;98181.97;;;12.09;48.20
13387;BME280;6763;48.524;9.044;2023-05-17T01:28:15;98181.97;;;12.09;48.46
13387;BME280;6763;48.524;9.044;2023-05-17T01:30:44;98188.00;;;12.10;48.92
13387;BME280;6763;48.524;9.044;2023-05-17T01:33:11;98184.59;;;12.08;48.51
13387;BME280;6763;48.524;9.044;2023-05-17T01:35:36;98194.16;;;12.06;48.71
13387;BME280;6763;48.524;9.044;2023-05-17T01:38:01;98192.44;;;12.05;49.02
13387;BME280;6763;48.524;9.044;2023-05-17T01:40:27;98194.16;;;12.06;49.23
13387;BME280;6763;48.524;9.044;2023-05-17T01:42:57;98192.38;;;12.06;48.96
13387;BME280;6763;48.524;9.044;2023-05-17T01:45:31;98195.03;;;12.05;49.31
13387;BME280;6763;48.524;9.044;2023-05-17T01:48:33;98202.00;;;12.03;49.42
13387;BME280;6763;48.524;9.044;2023-05-17T01:50:59;98202.00;;;12.01;49.42
13387;BME280;6763;48.524;9.044;2023-05-17T01:54:00;98199.50;;;11.97;49.33
13387;BME280;6763;48.524;9.044;2023-05-17T01:56:27;98202.09;;;11.97;49.15
13387;BME280;6763;48.524;9.044;2023-05-17T01:58:58;98204.72;;;11.95;49.54
13387;BME280;6763;48.524;9.044;2023-05-17T02:01:25;98204.78;;;11.92;49.87
13387;BME280;6763;48.524;9.044;2023-05-17T02:03:52;98209.97;;;11.91;49.74
13387;BME280;6763;48.524;9.044;2023-05-17T02:06:18;98210.88;;;11.88;49.59
13387;BME280;6763;48.524;9.044;2023-05-17T02:08:43;98201.41;;;11.87;49.62
13387;BME280;6763;48.524;9.044;2023-05-17T02:11:08;98206.63;;;11.84;50.11
13387;BME280;6763;48.524;9.044;2023-05-17T02:13:34;98213.59;;;11.82;49.80
13387;BME280;6763;48.524;9.044;2023-05-17T02:16:00;98217.06;;;11.81;50.09
13387;BME280;6763;48.524;9.044;2023-05-17T02:18:26;98217.97;;;11.78;50.16
13387;BME280;6763;48.524;9.044;2023-05-17T02:20:51;98217.19;;;11.75;50.13
13387;BME280;6763;48.524;9.044;2023-05-17T02:23:17;98216.31;;;11.73;50.38
13387;BME280;6763;48.524;9.044;2023-05-17T02:25:42;98218.09;;;11.71;50.35
13387;BME280;6763;48.524;9.044;2023-05-17T02:28:07;98222.44;;;11.69;50.27
13387;BME280;6763;48.524;9.044;2023-05-17T02:30:33;98215.50;;;11.68;50.54
13387;BME280;6763;48.524;9.044;2023-05-17T02:32:58;98212.09;;;11.66;50.37
13387;BME280;6763;48.524;9.044;2023-05-17T02:35:23;98220.72;;;11.66;50.30
13387;BME280;6763;48.524;9.044;2023-05-17T02:37:49;98227.69;;;11.64;50.55
13387;BME280;6763;48.524;9.044;2023-05-17T02:40:14;98220.81;;;11.62;50.54
13387;BME280;6763;48.524;9.044;2023-05-17T02:42:39;98226.91;;;11.58;50.35
13387;BME280;6763;48.524;9.044;2023-05-17T02:45:05;98220.91;;;11.54;50.53
13387;BME280;6763;48.524;9.044;2023-05-17T02:47:31;98220.13;;;11.51;50.23
13387;BME280;6763;48.524;9.044;2023-05-17T02:49:56;98226.19;;;11.47;50.77
13387;BME280;6763;48.524;9.044;2023-05-17T02:52:21;98231.50;;;11.41;50.36
13387;BME280;6763;48.524;9.044;2023-05-17T02:54:47;98230.72;;;11.36;50.48
13387;BME280;6763;48.524;9.044;2023-05-17T02:57:12;98229.03;;;11.32;50.60
13387;BME280;6763;48.524;9.044;2023-05-17T02:59:37;98229.97;;;11.28;50.72
13387;BME280;6763;48.524;9.044;2023-05-17T03:02:03;98237.78;;;11.25;50.91
13387;BME280;6763;48.524;9.044;2023-05-17T03:04:28;98230.06;;;11.18;51.03
13387;BME280;6763;48.524;9.044;2023-05-17T03:06:54;98238.78;;;11.13;51.26
13387;BME280;6763;48.524;9.044;2023-05-17T03:09:20;98240.59;;;11.08;51.40
13387;BME280;6763;48.524;9.044;2023-05-17T03:11:45;98240.69;;;11.02;51.36
13387;BME280;6763;48.524;9.044;2023-05-17T03:14:10;98245.91;;;10.97;51.61
13387;BME280;6763;48.524;9.044;2023-05-17T03:16:36;98244.28;;;10.90;51.09
13387;BME280;6763;48.524;9.044;2023-05-17T03:19:01;98240.91;;;10.84;51.04
13387;BME280;6763;48.524;9.044;2023-05-17T03:21:26;98249.63;;;10.77;51.55
13387;BME280;6763;48.524;9.044;2023-05-17T03:23:52;98243.66;;;10.70;51.39
13387;BME280;6763;48.524;9.044;2023-05-17T03:26:17;98248.03;;;10.64;51.44
13387;BME280;6763;48.524;9.044;2023-05-17T03:28:44;98247.25;;;10.58;51.39
13387;BME280;6763;48.524;9.044;2023-05-17T03:31:10;98252.47;;;10.54;51.70
13387;BME280;6763;48.524;9.044;2023-05-17T03:33:35;98257.72;;;10.49;51.85
13387;BME280;6763;48.524;9.044;2023-05-17T03:36:01;98260.34;;;10.45;52.04
13387;BME280;6763;48.524;9.044;2023-05-17T03:38:26;98252.63;;;10.42;51.64
13387;BME280;6763;48.524;9.044;2023-05-17T03:40:52;98249.19;;;10.38;52.26
13387;BME280;6763;48.524;9.044;2023-05-17T03:43:17;98257.00;;;10.34;51.80
13387;BME280;6763;48.524;9.044;2023-05-17T03:45:43;98259.66;;;10.28;52.54
13387;BME280;6763;48.524;9.044;2023-05-17T03:48:08;98253.69;;;10.24;51.82
13387;BME280;6763;48.524;9.044;2023-05-17T03:50:33;98258.88;;;10.20;52.07
13387;BME280;6763;48.524;9.044;2023-05-17T03:52:59;98265.81;;;10.16;51.93
13387;BME280;6763;48.524;9.044;2023-05-17T03:55:24;98258.09;;;10.13;52.66
13387;BME280;6763;48.524;9.044;2023-05-17T03:57:49;98269.28;;;10.12;52.84
13387;BME280;6763;48.524;9.044;2023-05-17T04:00:15;98271.00;;;10.10;52.83
13387;BME280;6763;48.524;9.044;2023-05-17T04:02:49;98274.47;;;10.08;52.87
13387;BME280;6763;48.524;9.044;2023-05-17T04:05:14;98275.34;;;10.07;52.74
13387;BME280;6763;48.524;9.044;2023-05-17T04:07:40;98272.75;;;10.07;53.05
13387;BME280;6763;48.524;9.044;2023-05-17T04:10:06;98281.38;;;10.09;53.05
13387;BME280;6763;48.524;9.044;2023-05-17T04:12:32;98271.88;;;10.09;52.96
13387;BME280;6763;48.524;9.044;2023-05-17T04:14:57;98279.63;;;10.11;53.18
13387;BME280;6763;48.524;9.044;2023-05-17T04:17:22;98290.84;;;10.08;52.84
13387;BME280;6763;48.524;9.044;2023-05-17T04:19:48;98296.88;;;10.07;53.27
13387;BME280;6763;48.524;9.044;2023-05-17T04:22:13;98300.38;;;10.06;52.93
13387;BME280;6763;48.524;9.044;2023-05-17T04:24:38;98295.13;;;10.09;53.36
13387;BME280;6763;48.524;9.044;2023-05-17T04:27:04;98291.66;;;10.12;52.89
13387;BME280;6763;48.524;9.044;2023-05-17T04:29:31;98300.31;;;10.15;52.86
13387;BME280;6763;48.524;9.044;2023-05-17T04:31:56;98299.44;;;10.16;53.00
13387;BME280;6763;48.524;9.044;2023-05-17T04:34:21;98307.19;;;10.18;52.50
13387;BME280;6763;48.524;9.044;2023-05-17T04:36:48;98304.50;;;10.28;53.39
13387;BME280;6763;48.524;9.044;2023-05-17T04:39:13;98305.06;;;10.61;53.27
13387;BME280;6763;48.524;9.044;2023-05-17T04:41:39;98304.50;;;11.06;52.57
13387;BME280;6763;48.524;9.044;2023-05-17T04:44:05;98304.72;;;11.55;51.35
13387;BME280;6763;48.524;9.044;2023-05-17T04:46:31;98307.53;;;12.01;50.31
13387;BME280;6763;48.524;9.044;2023-05-17T04:48:57;98318.09;;;12.40;49.49
13387;BME280;6763;48.524;9.044;2023-05-17T04:51:22;98314.03;;;12.73;49.06
13387;BME280;6763;48.524;9.044;2023-05-17T04:53:48;98312.69;;;12.98;48.25
13387;BME280;6763;48.524;9.044;2023-05-17T04:56:13;98313.00;;;13.26;48.41
13387;BME280;6763;48.524;9.044;2023-05-17T04:58:39;98314.22;;;13.50;47.08
13387;BME280;6763;48.524;9.044;2023-05-17T05:01:05;98317.22;;;13.72;47.32
13387;BME280;6763;48.524;9.044;2023-05-17T05:03:30;98312.34;;;13.93;46.46
13387;BME280;6763;48.524;9.044;2023-05-17T05:05:56;98324.88;;;14.14;45.93
13387;BME280;6763;48.524;9.044;2023-05-17T05:08:21;98321.84;;;14.33;45.25
13387;BME280;6763;48.524;9.044;2023-05-17T05:10:46;98326.59;;;14.51;44.80
13387;BME280;6763;48.524;9.044;2023-05-17T05:13:12;98330.38;;;14.71;44.70
13387;BME280;6763;48.524;9.044;2023-05-17T05:15:38;98329.94;;;14.88;43.82
13387;BME280;6763;48.524;9.044;2023-05-17T05:18:03;98340.09;;;14.99;43.35
13387;BME280;6763;48.524;9.044;2023-05-17T05:20:30;98348.41;;;15.11;42.62
13387;BME280;6763;48.524;9.044;2023-05-17T05:22:55;98339.50;;;15.20;42.75
13387;BME280;6763;48.524;9.044;2023-05-17T05:25:22;98340.00;;;15.32;42.69
13387;BME280;6763;48.524;9.044;2023-05-17T05:27:47;98343.00;;;15.49;42.62
13387;BME280;6763;48.524;9.044;2023-05-17T05:30:13;98342.69;;;15.60;42.61
13387;BME280;6763;48.524;9.044;2023-05-17T05:32:46;98339.03;;;15.66;42.25
13387;BME280;6763;48.524;9.044;2023-05-17T05:35:11;98331.22;;;15.66;42.27
13387;BME280;6763;48.524;9.044;2023-05-17T05:37:37;98345.13;;;15.66;42.40
13387;BME280;6763;48.524;9.044;2023-05-17T05:40:02;98347.63;;;15.69;42.11
13387;BME280;6763;48.524;9.044;2023-05-17T05:42:28;98349.41;;;15.67;42.32
13387;BME280;6763;48.524;9.044;2023-05-17T05:44:53;98346.16;;;15.61;42.44
13387;BME280;6763;48.524;9.044;2023-05-17T05:47:19;98349.88;;;15.52;42.51
13387;BME280;6763;48.524;9.044;2023-05-17T05:49:44;98347.53;;;15.41;42.72
13387;BME280;6763;48.524;9.044;2023-05-17T05:52:09;98346.97;;;15.32;43.21
13387;BME280;6763;48.524;9.044;2023-05-17T05:54:35;98349.81;;;15.23;43.44
13387;BME280;6763;48.524;9.044;2023-05-17T05:57:00;98353.50;;;15.16;43.64
13387;BME280;6763;48.524;9.044;2023-05-17T05:59:26;98356.38;;;15.07;43.49
13387;BME280;6763;48.524;9.044;2023-05-17T06:01:51;98356.59;;;14.99;43.87
13387;BME280;6763;48.524;9.044;2023-05-17T06:04:17;98361.03;;;14.96;43.89
13387;BME280;6763;48.524;9.044;2023-05-17T06:06:42;98366.25;;;14.94;43.91
13387;BME280;6763;48.524;9.044;2023-05-17T06:09:07;98361.91;;;14.95;44.12
13387;BME280;6763;48.524;9.044;2023-05-17T06:11:36;98367.97;;;14.95;44.57
13387;BME280;6763;48.524;9.044;2023-05-17T06:14:01;98364.44;;;14.98;44.15
13387;BME280;6763;48.524;9.044;2023-05-17T06:16:27;98373.03;;;15.01;44.30
13387;BME280;6763;48.524;9.044;2023-05-17T06:18:52;98367.03;;;14.98;44.15
13387;BME280;6763;48.524;9.044;2023-05-17T06:21:17;98370.50;;;14.98;44.12
13387;BME280;6763;48.524;9.044;2023-05-17T06:23:43;98377.38;;;15.01;44.26
13387;BME280;6763;48.524;9.044;2023-05-17T06:26:08;98381.50;;;15.09;44.17
13387;BME280;6763;48.524;9.044;2023-05-17T06:28:36;98374.28;;;15.19;44.04
13387;BME280;6763;48.524;9.044;2023-05-17T06:31:01;98373.06;;;15.30;43.72
13387;BME280;6763;48.524;9.044;2023-05-17T06:33:26;98374.56;;;15.39;42.77
13387;BME280;6763;48.524;9.044;2023-05-17T06:35:51;98371.81;;;15.45;42.85
13387;BME280;6763;48.524;9.044;2023-05-17T06:38:17;98373.50;;;15.47;42.34
13387;BME280;6763;48.524;9.044;2023-05-17T06:40:42;98365.50;;;15.54;42.28
13387;BME280;6763;48.524;9.044;2023-05-17T06:43:07;98370.44;;;15.63;42.15
13387;BME280;6763;48.524;9.044;2023-05-17T06:45:33;98375.34;;;15.73;40.97
13387;BME280;6763;48.524;9.044;2023-05-17T06:47:58;98375.34;;;15.73;40.66
13387;BME280;6763;48.524;9.044;2023-05-17T06:50:23;98372.72;;;15.73;40.78
13387;BME280;6763;48.524;9.044;2023-05-17T06:52:52;98366.72;;;15.71;40.22
13387;BME280;6763;48.524;9.044;2023-05-17T06:55:17;98372.72;;;15.73;40.47
13387;BME280;6763;48.524;9.044;2023-05-17T06:57:42;98374.31;;;15.79;40.33
13387;BME280;6763;48.524;9.044;2023-05-17T07:00:08;98369.94;;;15.79;39.58
13387;BME280;6763;48.524;9.044;2023-05-17T07:02:35;98369.13;;;15.77;39.74
13387;BME280;6763;48.524;9.044;2023-05-17T07:05:03;98367.50;;;15.73;40.06
13387;BME280;6763;48.524;9.044;2023-05-17T07:07:29;98377.78;;;15.79;39.98
13387;BME280;6763;48.524;9.044;2023-05-17T07:09:54;98384.47;;;15.88;40.27
13387;BME280;6763;48.524;9.044;2023-05-17T07:12:19;98379.06;;;15.94;39.82
13387;BME280;6763;48.524;9.044;2023-05-17T07:14:45;98383.34;;;15.96;39.84
13387;BME280;6763;48.524;9.044;2023-05-17T07:17:10;98378.03;;;15.99;39.28
13387;BME280;6763;48.524;9.044;2023-05-17T07:19:36;98371.06;;;16.00;39.46
13387;BME280;6763;48.524;9.044;2023-05-17T07:22:01;98371.78;;;16.03;39.25
13387;BME280;6763;48.524;9.044;2023-05-17T07:24:26;98371.56;;;16.11;39.28
13387;BME280;6763;48.524;9.044;2023-05-17T07:26:52;98379.06;;;16.22;38.99
13387;BME280;6763;48.524;9.044;2023-05-17T07:29:17;98380.44;;;16.33;38.64
13387;BME280;6763;48.524;9.044;2023-05-17T07:31:42;98380.97;;;16.43;38.64
13387;BME280;6763;48.524;9.044;2023-05-17T07:34:08;98384.22;;;16.51;38.23
13387;BME280;6763;48.524;9.044;2023-05-17T07:36:33;98380.50;;;16.58;38.10
13387;BME280;6763;48.524;9.044;2023-05-17T07:38:59;98385.19;;;16.74;38.35
13387;BME280;6763;48.524;9.044;2023-05-17T07:41:24;98383.91;;;16.86;37.09
13387;BME280;6763;48.524;9.044;2023-05-17T07:43:51;98383.59;;;16.95;37.31
13387;BME280;6763;48.524;9.044;2023-05-17T07:46:16;98384.88;;;17.08;37.06
13387;BME280;6763;48.524;9.044;2023-05-17T07:48:42;98384.44;;;17.20;36.89
13387;BME280;6763;48.524;9.044;2023-05-17T07:51:08;98378.78;;;17.32;36.89
13387;BME280;6763;48.524;9.044;2023-05-17T07:53:33;98384.97;;;17.55;36.65
13387;BME280;6763;48.524;9.044;2023-05-17T07:55:58;98396.22;;;17.80;36.67
13387;BME280;6763;48.524;9.044;2023-05-17T07:58:23;98393.56;;;17.81;34.62
13387;BME280;6763;48.524;9.044;2023-05-17T08:00:49;98395.81;;;17.69;35.09
13387;BME280;6763;48.524;9.044;2023-05-17T08:03:14;98388.91;;;17.66;35.15
13387;BME280;6763;48.524;9.044;2023-05-17T08:05:39;98396.88;;;17.63;34.86
13387;BME280;6763;48.524;9.044;2023-05-17T08:08:05;98396.34;;;17.54;35.07
13387;BME280;6763;48.524;9.044;2023-05-17T08:10:30;98391.59;;;17.40;34.62
13387;BME280;6763;48.524;9.044;2023-05-17T08:12:56;98388.44;;;17.30;35.10
13387;BME280;6763;48.524;9.044;2023-05-17T08:15:21;98398.81;;;17.33;35.23
13387;BME280;6763;48.524;9.044;2023-05-17T08:17:46;98400.69;;;17.30;35.06
13387;BME280;6763;48.524;9.044;2023-05-17T08:20:12;98399.75;;;17.31;35.01
13387;BME280;6763;48.524;9.044;2023-05-17T08:22:37;98390.06;;;17.34;35.14
13387;BME280;6763;48.524;9.044;2023-05-17T08:25:03;98389.88;;;17.39;35.01
13387;BME280;6763;48.524;9.044;2023-05-17T08:27:28;98388.75;;;17.46;35.31
13387;BME280;6763;48.524;9.044;2023-05-17T08:29:56;98391.00;;;17.57;34.72
13387;BME280;6763;48.524;9.044;2023-05-17T08:32:22;98393.34;;;17.64;34.84
13387;BME280;6763;48.524;9.044;2023-05-17T08:34:48;98384.56;;;17.65;34.51
13387;BME280;6763;48.524;9.044;2023-05-17T08:37:13;98388.78;;;17.69;34.57
13387;BME280;6763;48.524;9.044;2023-05-17T08:39:38;98379.81;;;17.98;34.84
13387;BME280;6763;48.524;9.044;2023-05-17T08:42:07;98381.84;;;18.35;34.15
13387;BME280;6763;48.524;9.044;2023-05-17T08:44:33;98383.06;;;18.70;33.60
13387;BME280;6763;48.524;9.044;2023-05-17T08:46:58;98379.16;;;19.00;33.15
13387;BME280;6763;48.524;9.044;2023-05-17T08:49:26;98394.53;;;19.28;32.14
13387;BME280;6763;48.524;9.044;2023-05-17T08:51:53;98378.44;;;19.35;31.64
13387;BME280;6763;48.524;9.044;2023-05-17T08:54:18;98377.75;;;19.32;31.38
13387;BME280;6763;48.524;9.044;2023-05-17T08:56:44;98377.09;;;19.27;31.27
13387;BME280;6763;48.524;9.044;2023-05-17T08:59:11;98378.34;;;19.18;31.48
13387;BME280;6763;48.524;9.044;2023-05-17T09:01:39;98383.53;;;19.19;31.57
13387;BME280;6763;48.524;9.044;2023-05-17T09:04:07;98382.41;;;19.25;31.69
13387;BME280;6763;48.524;9.044;2023-05-17T09:06:34;98383.13;;;19.29;31.33
13387;BME280;6763;48.524;9.044;2023-05-17T09:08:59;98393.19;;;19.19;31.10
13387;BME280;6763;48.524;9.044;2023-05-17T09:11:30;98379.88;;;19.03;31.24
13387;BME280;6763;48.524;9.044;2023-05-17T09:14:04;98379.41;;;18.94;31.24
13387;BME280;6763;48.524;9.044;2023-05-17T09:16:31;98377.72;;;18.93;31.32
13387;BME280;6763;48.524;9.044;2023-05-17T09:18:58;98382.03;;;19.14;31.34
13387;BME280;6763;48.524;9.044;2023-05-17T09:21:25;98377.75;;;19.52;30.89
13387;BME280;6763;48.524;9.044;2023-05-17T09:23:52;98369.59;;;19.95;30.46
13387;BME280;6763;48.524;9.044;2023-05-17T09:26:18;98381.41;;;20.24;30.46
13387;BME280;6763;48.524;9.044;2023-05-17T09:28:44;98382.03;;;20.29;29.95
13387;BME280;6763;48.524;9.044;2023-05-17T09:31:10;98388.06;;;20.12;30.06
13387;BME280;6763;48.524;9.044;2023-05-17T09:33:46;98382.88;;;19.92;30.11
13387;BME280;6763;48.524;9.044;2023-05-17T09:36:16;98386.78;;;19.65;30.69
13387;BME280;6763;48.524;9.044;2023-05-17T09:38:42;98398.44;;;19.39;30.85
13387;BME280;6763;48.524;9.044;2023-05-17T09:41:07;98391.25;;;19.23;31.18
13387;BME280;6763;48.524;9.044;2023-05-17T09:43:33;98398.56;;;19.16;31.16
13387;BME280;6763;48.524;9.044;2023-05-17T09:45:58;98392.53;;;19.14;31.42
13387;BME280;6763;48.524;9.044;2023-05-17T09:48:26;98389.44;;;19.25;31.56
13387;BME280;6763;48.524;9.044;2023-05-17T09:50:53;98389.31;;;19.48;31.11
13387;BME280;6763;48.524;9.044;2023-05-17T09:55:47;98374.78;;;19.78;31.06
13387;BME280;6763;48.524;9.044;2023-05-17T09:58:12;98378.41;;;19.94;30.86
13387;BME280;6763;48.524;9.044;2023-05-17T10:00:38;98381.19;;;20.10;30.52
13387;BME280;6763;48.524;9.044;2023-05-17T10:03:05;98380.88;;;20.16;30.14
13387;BME280;6763;48.524;9.044;2023-05-17T10:05:31;98376.84;;;20.09;30.06
13387;BME280;6763;48.524;9.044;2023-05-17T10:07:57;98374.34;;;20.06;30.22
13387;BME280;6763;48.524;9.044;2023-05-17T10:10:22;98383.72;;;19.93;30.08
13387;BME280;6763;48.524;9.044;2023-05-17T10:12:48;98383.19;;;19.86;30.48
13387;BME280;6763;48.524;9.044;2023-05-17T10:15:14;98382.81;;;19.94;30.54
13387;BME280;6763;48.524;9.044;2023-05-17T10:17:41;98395.47;;;19.86;30.61
13387;BME280;6763;48.524;9.044;2023-05-17T10:20:08;98390.06;;;19.89;30.36
13387;BME280;6763;48.524;9.044;2023-05-17T10:22:35;98388.97;;;19.74;30.24
13387;BME280;6763;48.524;9.044;2023-05-17T10:25:02;98390.78;;;19.53;30.68
13387;BME280;6763;48.524;9.044;2023-05-17T10:27:27;98391.13;;;19.46;31.03
13387;BME280;6763;48.524;9.044;2023-05-17T10:29:53;98398.97;;;19.47;31.11
13387;BME280;6763;48.524;9.044;2023-05-17T10:32:20;98401.81;;;19.61;31.27
13387;BME280;6763;48.524;9.044;2023-05-17T10:34:47;98398.09;;;19.86;31.33
13387;BME280;6763;48.524;9.044;2023-05-17T10:37:16;98393.81;;;20.20;31.10
13387;BME280;6763;48.524;9.044;2023-05-17T10:39:43;98389.81;;;20.49;30.65
13387;BME280;6763;48.524;9.044;2023-05-17T10:42:12;98388.22;;;20.81;30.33
13387;BME280;6763;48.524;9.044;2023-05-17T10:44:38;98388.41;;;21.12;29.99
13387;BME280;6763;48.524;9.044;2023-05-17T10:47:03;98387.59;;;21.44;29.69
13387;BME280;6763;48.524;9.044;2023-05-17T10:49:31;98387.47;;;21.63;29.02
13387;BME280;6763;48.524;9.044;2023-05-17T10:51:58;98380.75;;;21.40;27.83
13387;BME280;6763;48.524;9.044;2023-05-17T10:54:40;98384.44;;;21.03;27.97
13387;BME280;6763;48.524;9.044;2023-05-17T10:57:06;98386.19;;;20.86;28.83
13387;BME280;6763;48.524;9.044;2023-05-17T10:59:32;98383.19;;;20.93;28.95
13387;BME280;6763;48.524;9.044;2023-05-17T11:02:07;98386.44;;;20.98;28.58
13387;BME280;6763;48.524;9.044;2023-05-17T11:10:16;98377.19;;;21.09;28.53
13387;BME280;6763;48.524;9.044;2023-05-17T11:12:45;98361.75;;;21.51;27.98
13387;BME280;6763;48.524;9.044;2023-05-17T11:15:15;98382.50;;;21.90;27.42
13387;BME280;6763;48.524;9.044;2023-05-17T11:22:55;98364.75;;;21.45;26.95
13387;BME280;6763;48.524;9.044;2023-05-17T11:25:30;98364.03;;;21.41;27.42
13387;BME280;6763;48.524;9.044;2023-05-17T11:27:57;98360.84;;;21.52;27.51
13387;BME280;6763;48.524;9.044;2023-05-17T11:32:50;98364.41;;;21.51;26.71
13387;BME280;6763;48.524;9.044;2023-05-17T11:35:17;98363.41;;;21.69;25.96
13387;BME280;6763;48.524;9.044;2023-05-17T11:37:43;98357.41;;;21.83;26.14
13387;BME280;6763;48.524;9.044;2023-05-17T11:40:09;98366.63;;;22.07;25.18
13387;BME280;6763;48.524;9.044;2023-05-17T11:42:37;98346.47;;;22.06;25.46
13387;BME280;6763;48.524;9.044;2023-05-17T11:45:04;98349.84;;;22.08;25.41
13387;BME280;6763;48.524;9.044;2023-05-17T11:47:29;98345.28;;;22.11;25.23
13387;BME280;6763;48.524;9.044;2023-05-17T11:49:59;98356.69;;;22.12;25.82
13387;BME280;6763;48.524;9.044;2023-05-17T11:52:27;98360.25;;;22.11;25.10
13387;BME280;6763;48.524;9.044;2023-05-17T11:54:53;98357.00;;;21.90;25.23
13387;BME280;6763;48.524;9.044;2023-05-17T11:57:19;98356.09;;;21.74;25.35
13387;BME280;6763;48.524;9.044;2023-05-17T11:59:46;98357.78;;;21.59;25.93
13387;BME280;6763;48.524;9.044;2023-05-17T12:02:29;98354.25;;;21.60;25.78
13387;BME280;6763;48.524;9.044;2023-05-17T12:04:54;98353.81;;;21.68;25.69
13387;BME280;6763;48.524;9.044;2023-05-17T12:07:20;98359.84;;;21.70;25.83
13387;BME280;6763;48.524;9.044;2023-05-17T12:09:46;98351.63;;;21.76;26.05
13387;BME280;6763;48.524;9.044;2023-05-17T12:12:11;98358.91;;;21.71;26.04
13387;BME280;6763;48.524;9.044;2023-05-17T12:14:37;98355.25;;;21.58;26.16
13387;BME280;6763;48.524;9.044;2023-05-17T12:17:07;98355.84;;;21.63;26.37
13387;BME280;6763;48.524;9.044;2023-05-17T12:19:33;98344.88;;;21.55;25.89
13387;BME280;6763;48.524;9.044;2023-05-17T12:22:08;98351.28;;;21.34;26.29
13387;BME280;6763;48.524;9.044;2023-05-17T12:24:37;98359.38;;;21.14;26.66
13387;BME280;6763;48.524;9.044;2023-05-17T12:27:03;98351.75;;;21.25;26.61
13387;BME280;6763;48.524;9.044;2023-05-17T12:29:28;98346.41;;;21.75;26.33
13387;BME280;6763;48.524;9.044;2023-05-17T12:31:54;98348.16;;;22.38;25.83
13387;BME280;6763;48.524;9.044;2023-05-17T12:34:20;98346.88;;;22.59;25.47
13387;BME280;6763;48.524;9.044;2023-05-17T12:36:47;98337.81;;;22.65;25.45
13387;BME280;6763;48.524;9.044;2023-05-17T12:39:13;98342.09;;;22.36;25.35
13387;BME280;6763;48.524;9.044;2023-05-17T12:41:39;98345.97;;;21.99;25.62
13387;BME280;6763;48.524;9.044;2023-05-17T12:44:06;98340.44;;;21.71;25.92
13387;BME280;6763;48.524;9.044;2023-05-17T12:46:33;98348.72;;;21.65;26.25
13387;BME280;6763;48.524;9.044;2023-05-17T12:49:06;98345.25;;;21.80;25.92
13387;BME280;6763;48.524;9.044;2023-05-17T12:51:43;98348.94;;;22.09;25.91
13387;BME280;6763;48.524;9.044;2023-05-17T12:54:09;98354.47;;;22.20;25.52
13387;BME280;6763;48.524;9.044;2023-05-17T12:56:35;98343.50;;;21.96;25.78
13387;BME280;6763;48.524;9.044;2023-05-17T12:59:13;98355.91;;;21.61;26.15
13387;BME280;6763;48.524;9.044;2023-05-17T13:01:41;98345.56;;;21.26;26.85
13387;BME280;6763;48.524;9.044;2023-05-17T13:04:08;98343.25;;;21.02;27.60
13387;BME280;6763;48.524;9.044;2023-05-17T13:06:44;98338.38;;;20.95;27.64
13387;BME280;6763;48.524;9.044;2023-05-17T13:09:10;98341.16;;;21.09;27.65
13387;BME280;6763;48.524;9.044;2023-05-17T13:11:35;98335.59;;;21.63;27.46
13387;BME280;6763;48.524;9.044;2023-05-17T13:14:06;98335.19;;;22.34;26.45
13387;BME280;6763;48.524;9.044;2023-05-17T13:16:31;98330.69;;;22.51;25.84
13387;BME280;6763;48.524;9.044;2023-05-17T13:18:58;98340.03;;;22.41;25.53
13387;BME280;6763;48.524;9.044;2023-05-17T13:21:23;98343.66;;;22.24;25.50
13387;BME280;6763;48.524;9.044;2023-05-17T13:23:49;98328.75;;;22.23;25.68
13387;BME280;6763;48.524;9.044;2023-05-17T13:26:15;98338.28;;;22.26;25.96
13387;BME280;6763;48.524;9.044;2023-05-17T13:28:41;98336.75;;;22.38;25.55